Pagrindinis puslapis
METAR-TAF:

METAR-TAF

Oro uostai :

Marsa Alam, Egiptas

platuma: 25-33-25N, ilguma: 34-35-01E, Aukštis: 77 m

Dabartinis oras

Ataskaita buvo paskelbta 1 valandą ir 37 minutes, ne 06:00 UTC
Vėjas 15 kt iš Šiaurės/Šiaurės Vakarų
Temperatūra 38°C
Drėgmė 17%
Slėgis 1004 hPa
Matomumas 10 km arba daugiau
nėra debesų žemiau 1500 m ir nėra kamuolinių lietaus debesų

METAR: HEMA 230600Z 34015KT CAVOK 38/09 Q1004 NOSIG

Laikas: 09:37 (07:37 UTC)

Prognozė

Ataskaita buvo paskelbta 2 valandos ir 37 minutes, ne 05:00 UTC
Prognozė galioja nuo 23 metu 06 UTC su 24 metu 12 UTC
Vėjas 18 kt iš Šiaurės/Šiaurės Rytų
Matomumas 10 km arba daugiau
nėra debesų žemiau 1500 m ir nėra kamuolinių lietaus debesų

TAF: HEMA 230500Z 2306/2412 02018KT CAVOK

Orai ataskaitas ir orų prognozės (METAR, TAF).

turimą stotys yra geltonos ir raudonos taškus žemėlapyje.

Perkelti pele per norėdami pamatyti stoties vardą.

Tada spustelėkite, norėdami matyti oro stebėjimo ir prognozės.

Norėdami pakeisti žemėlapį: spustelėkite ant žalios mygtukų su juodo kryžiaus žemyn,; žalią mygtuką su brūkšneliu, jei norite nutolinti; arba žalių rodyklių gretimoms žemėlapius.


METAR-TAF: